Time;durP1;ratioP1;P1;durP2;ratioP2;P2;SDS_P1;SDS_P2;PMS_P1;PMS_P2;Temp;Humidity;BMP_temperature;BMP_pressure;BME280_temperature;BME280_humidity;BME280_pressure;Samples;Min_cycle;Max_cycle;Signal;HPM_P1;HPM_P2
2023/07/02 00:00:54;;;;;;;6.30;5.80;;;19.50;99.90;;;;;;10506968;28;20698;-86
2023/07/02 00:05:57;;;;;;;5.60;5.20;;;19.60;99.90;;;;;;10518218;28;20211;-84
2023/07/02 00:11:00;;;;;;;6.37;5.57;;;19.70;99.90;;;;;;10507166;28;20592;-85
2023/07/02 00:16:03;;;;;;;5.47;4.97;;;19.70;99.90;;;;;;10487083;28;20696;-82
2023/07/02 00:21:06;;;;;;;5.73;5.33;;;19.80;99.90;;;;;;10488389;28;20256;-86
2023/07/02 00:26:10;;;;;;;5.70;5.40;;;19.90;99.90;;;;;;10505331;28;20304;-84
2023/07/02 00:31:12;;;;;;;5.23;4.93;;;19.90;99.90;;;;;;10506752;28;20627;-84
2023/07/02 00:36:15;;;;;;;6.93;4.60;;;19.90;99.90;;;;;;10506204;28;20225;-85
2023/07/02 00:41:18;;;;;;;4.70;4.40;;;19.90;99.90;;;;;;10486202;28;20288;-84
2023/07/02 00:46:24;;;;;;;4.90;4.50;;;19.90;99.90;;;;;;10486011;28;20196;-82
2023/07/02 00:51:28;;;;;;;4.13;3.90;;;19.90;99.90;;;;;;10506733;28;20222;-83
2023/07/02 00:56:32;;;;;;;4.50;4.20;;;20.00;99.90;;;;;;10484542;28;20227;-85
2023/07/02 01:01:37;;;;;;;5.10;4.80;;;20.00;99.90;;;;;;10485811;28;20731;-85
2023/07/02 01:06:40;;;;;;;4.70;4.40;;;20.00;99.90;;;;;;10487419;28;20194;-83
2023/07/02 01:11:47;;;;;;;5.30;3.40;;;20.10;99.90;;;;;;10488364;28;20221;-84
2023/07/02 01:16:50;;;;;;;4.20;3.90;;;20.10;99.90;;;;;;10506340;28;20253;-84
2023/07/02 01:21:54;;;;;;;4.13;3.83;;;20.10;99.90;;;;;;10488811;28;20225;-83
2023/07/02 01:26:56;;;;;;;4.33;4.03;;;20.10;99.90;;;;;;10506699;28;20623;-81
2023/07/02 01:31:58;;;;;;;3.87;3.67;;;20.10;99.90;;;;;;10489116;28;20231;-81
2023/07/02 01:37:02;;;;;;;4.23;4.00;;;20.10;99.90;;;;;;10493276;28;20222;-84
2023/07/02 01:42:11;;;;;;;4.00;3.70;;;20.00;99.90;;;;;;10469289;28;20221;-83
2023/07/02 01:47:15;;;;;;;5.70;4.00;;;20.00;99.90;;;;;;10503872;28;20205;-79
2023/07/02 01:52:19;;;;;;;4.13;3.83;;;19.90;99.90;;;;;;10486842;28;20228;-83
2023/07/02 01:57:21;;;;;;;4.03;3.50;;;19.80;99.90;;;;;;10504531;28;20616;-84
2023/07/02 02:02:23;;;;;;;3.97;3.77;;;19.70;99.90;;;;;;10489419;28;20224;-83
2023/07/02 02:07:26;;;;;;;4.13;3.83;;;19.60;99.90;;;;;;10492497;28;20194;-83
2023/07/02 02:12:30;;;;;;;4.07;3.77;;;19.50;99.90;;;;;;10494376;28;20232;-84
2023/07/02 02:17:33;;;;;;;4.30;4.10;;;19.50;99.90;;;;;;10478661;28;20290;-80
2023/07/02 02:22:37;;;;;;;4.20;4.00;;;19.40;99.90;;;;;;10494931;28;20785;-83
2023/07/02 02:27:39;;;;;;;4.40;4.10;;;19.40;99.90;;;;;;10493297;28;20204;-83
2023/07/02 02:32:41;;;;;;;3.90;3.60;;;19.40;99.90;;;;;;10493789;28;20321;-81
2023/07/02 02:37:47;;;;;;;4.47;4.10;;;19.40;99.90;;;;;;10492161;28;20475;-83
2023/07/02 02:42:49;;;;;;;4.73;4.27;;;19.40;99.90;;;;;;10509093;28;20251;-82
2023/07/02 02:47:51;;;;;;;5.00;4.70;;;19.40;99.90;;;;;;10491210;28;20197;-82
2023/07/02 02:52:55;;;;;;;4.20;4.00;;;19.40;99.90;;;;;;10508728;28;20221;-83
2023/07/02 02:57:57;;;;;;;4.37;4.07;;;19.50;99.90;;;;;;10508365;28;20249;-84
2023/07/02 03:02:59;;;;;;;4.50;4.30;;;19.60;99.90;;;;;;10492558;28;20290;-83
2023/07/02 03:08:03;;;;;;;4.60;4.20;;;19.60;99.90;;;;;;10492208;28;20193;-82
2023/07/02 03:13:05;;;;;;;4.30;4.00;;;19.70;99.90;;;;;;10493494;28;20308;-83
2023/07/02 03:18:07;;;;;;;4.37;4.07;;;19.80;99.90;;;;;;10492850;28;20235;-84
2023/07/02 03:23:11;;;;;;;4.50;4.20;;;19.90;99.90;;;;;;10510597;28;20292;-87
2023/07/02 03:28:13;;;;;;;4.00;3.70;;;19.90;99.90;;;;;;10490064;28;20221;-82
2023/07/02 03:33:15;;;;;;;4.47;4.13;;;19.90;99.90;;;;;;10510367;28;20213;-84
2023/07/02 03:38:19;;;;;;;4.80;4.50;;;19.90;99.90;;;;;;10491255;28;20217;-84
2023/07/02 03:43:21;;;;;;;4.67;4.27;;;19.80;99.90;;;;;;10510683;28;20237;-85
2023/07/02 03:48:23;;;;;;;5.03;4.63;;;19.70;99.90;;;;;;10493944;28;20517;-81
2023/07/02 03:53:26;;;;;;;4.37;4.07;;;19.60;99.90;;;;;;10512443;28;20217;-84
2023/07/02 03:58:29;;;;;;;4.87;4.57;;;19.60;99.90;;;;;;10514230;28;20227;-84
2023/07/02 04:03:31;;;;;;;4.83;4.43;;;19.50;99.90;;;;;;10521787;28;20283;-83
2023/07/02 04:08:35;;;;;;;4.63;4.33;;;19.50;99.90;;;;;;10524016;28;20185;-84
2023/07/02 04:13:37;;;;;;;4.73;3.70;;;19.50;99.90;;;;;;10522620;28;20221;-83
2023/07/02 04:18:39;;;;;;;5.57;5.10;;;19.50;99.90;;;;;;10504375;28;20201;-83
2023/07/02 04:23:42;;;;;;;5.40;4.50;;;19.50;99.90;;;;;;10498188;28;20742;-83
2023/07/02 04:28:44;;;;;;;4.80;4.40;;;19.50;99.90;;;;;;10487058;28;20676;-83
2023/07/02 04:33:46;;;;;;;6.13;5.43;;;19.50;99.90;;;;;;10506150;28;20272;-82
2023/07/02 04:38:50;;;;;;;5.27;4.77;;;19.60;99.90;;;;;;10487006;28;20280;-82
2023/07/02 04:43:52;;;;;;;4.57;4.17;;;19.60;99.90;;;;;;10508702;28;20308;-83
2023/07/02 04:48:54;;;;;;;5.63;4.43;;;19.60;99.90;;;;;;10503033;28;20197;-83
2023/07/02 04:53:58;;;;;;;4.70;4.30;;;19.60;99.90;;;;;;10502104;28;20237;-81
2023/07/02 04:59:00;;;;;;;4.83;4.53;;;19.60;99.90;;;;;;10468750;28;20201;-83
2023/07/02 05:04:02;;;;;;;7.00;5.53;;;19.60;99.90;;;;;;10504658;28;20236;-85
2023/07/02 05:09:05;;;;;;;5.07;4.63;;;19.60;99.90;;;;;;10503784;28;20563;-84
2023/07/02 05:14:07;;;;;;;5.10;4.50;;;19.70;99.90;;;;;;10504012;28;20691;-80
2023/07/02 05:19:10;;;;;;;4.30;3.90;;;19.80;99.90;;;;;;10504206;28;20202;-82
2023/07/02 05:24:13;;;;;;;5.80;4.40;;;19.90;99.90;;;;;;10485898;28;20638;-82
2023/07/02 05:29:15;;;;;;;4.10;3.80;;;20.00;99.90;;;;;;10503714;28;20193;-84
2023/07/02 05:34:17;;;;;;;4.70;4.30;;;20.00;99.90;;;;;;10485912;28;20302;-84
2023/07/02 05:39:22;;;;;;;4.93;4.43;;;20.10;99.90;;;;;;10502403;28;20206;-81
2023/07/02 05:44:24;;;;;;;5.40;4.87;;;20.20;99.90;;;;;;10516382;28;20221;-84
2023/07/02 05:49:27;;;;;;;6.10;4.87;;;20.30;99.90;;;;;;10512092;28;20259;-83
2023/07/02 05:54:30;;;;;;;6.40;4.67;;;20.30;99.90;;;;;;10514824;28;20229;-80
2023/07/02 05:59:32;;;;;;;5.93;5.13;;;20.20;99.90;;;;;;10511599;28;20201;-84
2023/07/02 06:04:34;;;;;;;5.67;5.17;;;20.20;99.90;;;;;;10513429;28;20286;-85
2023/07/02 06:09:38;;;;;;;6.40;5.60;;;20.10;99.90;;;;;;10513726;28;20242;-85
2023/07/02 06:14:40;;;;;;;7.80;5.53;;;20.10;99.90;;;;;;10518993;28;20221;-82
2023/07/02 06:19:42;;;;;;;10.23;6.80;;;20.10;99.90;;;;;;10506288;28;20197;-82
2023/07/02 06:24:45;;;;;;;6.83;6.20;;;20.20;99.90;;;;;;10510218;28;20205;-83
2023/07/02 06:29:48;;;;;;;8.50;7.70;;;20.20;99.90;;;;;;10489603;28;20612;-82
2023/07/02 06:34:50;;;;;;;13.17;8.43;;;20.30;99.90;;;;;;10511977;28;20612;-83
2023/07/02 06:39:53;;;;;;;9.67;8.73;;;20.40;98.60;;;;;;10511337;28;20232;-83
2023/07/02 06:44:55;;;;;;;11.67;8.70;;;20.70;97.40;;;;;;10492138;28;20621;-84
2023/07/02 06:49:57;;;;;;;10.40;9.40;;;21.00;97.70;;;;;;10489908;28;20198;-84
2023/07/02 06:55:01;;;;;;;13.20;9.87;;;21.20;96.90;;;;;;10492911;28;20260;-84
2023/07/02 07:00:04;;;;;;;14.97;8.77;;;21.30;95.70;;;;;;10508710;28;20236;-84
2023/07/02 07:05:07;;;;;;;10.17;8.70;;;21.40;95.40;;;;;;10492811;28;20196;-83
2023/07/02 07:10:10;;;;;;;11.20;8.73;;;21.50;94.60;;;;;;10471147;28;20221;-85
2023/07/02 07:15:13;;;;;;;11.63;9.30;;;21.50;95.00;;;;;;10510754;28;20224;-82
2023/07/02 07:20:15;;;;;;;11.90;8.97;;;21.80;94.90;;;;;;10509990;28;20611;-84
2023/07/02 07:25:18;;;;;;;11.93;9.63;;;22.00;94.20;;;;;;10510734;28;20211;-83
2023/07/02 07:30:22;;;;;;;12.67;9.77;;;22.20;94.10;;;;;;10511184;28;20284;-84
2023/07/02 07:35:24;;;;;;;14.43;10.90;;;22.40;91.50;;;;;;10496304;28;20837;-84
2023/07/02 07:40:28;;;;;;;14.20;10.57;;;22.50;91.90;;;;;;10510439;28;20213;-83
2023/07/02 07:45:31;;;;;;;13.40;10.10;;;22.50;90.60;;;;;;10492531;28;20204;-84
2023/07/02 07:50:33;;;;;;;15.40;11.43;;;22.70;89.10;;;;;;10517497;28;20222;-81
2023/07/02 07:55:36;;;;;;;14.93;9.50;;;22.80;88.60;;;;;;10510455;28;20214;-84
2023/07/02 08:00:38;;;;;;;17.07;11.90;;;23.00;86.50;;;;;;10493499;28;20312;-84
2023/07/02 08:05:40;;;;;;;14.87;11.43;;;23.10;86.20;;;;;;10509703;28;20193;-83
2023/07/02 08:10:45;;;;;;;14.83;11.33;;;23.20;86.00;;;;;;10492218;28;20220;-84
2023/07/02 08:15:47;;;;;;;16.40;11.93;;;23.50;85.20;;;;;;10509745;28;20213;-83
2023/07/02 08:20:49;;;;;;;14.97;11.27;;;23.80;83.80;;;;;;10498636;28;20218;-84
2023/07/02 08:25:53;;;;;;;16.47;12.60;;;24.00;83.70;;;;;;10489076;28;20194;-84
2023/07/02 08:30:55;;;;;;;16.40;12.10;;;24.50;80.70;;;;;;10493418;28;20227;-82
2023/07/02 08:35:57;;;;;;;16.20;11.80;;;24.60;79.50;;;;;;10489162;28;20639;-85
2023/07/02 08:41:01;;;;;;;14.70;11.67;;;24.70;78.40;;;;;;10487194;28;20312;-85
2023/07/02 08:46:03;;;;;;;14.10;10.57;;;24.80;76.20;;;;;;10508990;28;20196;-84
2023/07/02 08:51:06;;;;;;;19.27;11.63;;;25.10;75.70;;;;;;10505792;28;20217;-82
2023/07/02 08:56:09;;;;;;;11.93;9.67;;;25.20;74.10;;;;;;10496535;28;20225;-83
2023/07/02 09:01:12;;;;;;;12.87;10.27;;;25.50;72.40;;;;;;10493659;28;20579;-84
2023/07/02 09:06:17;;;;;;;11.17;9.73;;;25.70;72.70;;;;;;10496947;28;20200;-84
2023/07/02 09:11:21;;;;;;;12.20;8.43;;;26.20;71.50;;;;;;10495668;28;20225;-84
2023/07/02 09:16:25;;;;;;;12.50;10.30;;;26.70;68.00;;;;;;10494643;28;20229;-83
2023/07/02 09:21:28;;;;;;;16.93;9.23;;;26.70;64.50;;;;;;10496163;28;20216;-82
2023/07/02 09:26:31;;;;;;;11.17;9.73;;;26.60;64.60;;;;;;10481071;28;20201;-83
2023/07/02 09:31:44;;;;;;;13.20;10.30;;;26.60;66.50;;;;;;10501585;28;20223;-84
2023/07/02 09:36:46;;;;;;;14.43;9.63;;;27.10;67.40;;;;;;10495067;28;20214;-83
2023/07/02 09:41:50;;;;;;;11.30;9.90;;;27.40;65.00;;;;;;10459072;28;20220;-84
2023/07/02 09:47:01;;;;;;;12.30;10.03;;;28.10;63.40;;;;;;10473409;28;20197;-82
2023/07/02 09:52:05;;;;;;;15.13;10.23;;;28.80;59.50;;;;;;10490525;28;20275;-84
2023/07/02 09:57:09;;;;;;;12.23;10.17;;;29.60;58.00;;;;;;10487056;28;20294;-82
2023/07/02 10:02:13;;;;;;;11.90;9.67;;;30.30;57.20;;;;;;10494921;28;20320;-85
2023/07/02 10:07:27;;;;;;;10.00;9.00;;;30.60;57.20;;;;;;10493816;28;20664;-84
2023/07/02 10:12:31;;;;;;;10.73;9.57;;;32.20;55.30;;;;;;10495279;28;20296;-84
2023/07/02 10:17:34;;;;;;;10.57;9.50;;;33.60;52.80;;;;;;10504541;28;20221;-83
2023/07/02 10:22:44;;;;;;;14.43;9.80;;;32.90;51.60;;;;;;10493586;28;20638;-86
2023/07/02 10:27:48;;;;;;;16.27;10.80;;;32.70;53.00;;;;;;10489750;28;20203;-83
2023/07/02 10:32:50;;;;;;;13.60;11.80;;;32.30;51.10;;;;;;10503248;28;20221;-83
2023/07/02 10:37:52;;;;;;;13.47;11.30;;;31.20;51.50;;;;;;10505670;28;20753;-82
2023/07/02 10:42:55;;;;;;;13.20;10.17;;;30.20;53.20;;;;;;10499658;28;20271;-84
2023/07/02 10:47:57;;;;;;;15.23;10.50;;;29.10;55.10;;;;;;10484507;28;20668;-84
2023/07/02 10:52:59;;;;;;;16.77;12.87;;;28.40;56.00;;;;;;10501299;28;20221;-84
2023/07/02 10:58:08;;;;;;;14.47;12.03;;;28.00;57.10;;;;;;10497489;28;20260;-84
2023/07/02 11:03:18;;;;;;;14.27;12.13;;;27.70;57.60;;;;;;10520005;22;20232;-77
2023/07/02 11:08:21;;;;;;;14.00;11.43;;;27.20;58.40;;;;;;10482248;28;20228;-77
2023/07/02 11:13:24;;;;;;;13.90;11.60;;;26.90;58.00;;;;;;10491852;28;20228;-77
2023/07/02 11:18:31;;;;;;;17.23;12.47;;;26.60;58.30;;;;;;10482632;28;20236;-78
2023/07/02 11:23:36;;;;;;;13.97;11.57;;;26.30;59.20;;;;;;10446015;28;20214;-77
2023/07/02 11:28:50;;;;;;;14.63;11.77;;;26.10;58.70;;;;;;10481291;28;20202;-77
2023/07/02 11:33:52;;;;;;;14.67;12.20;;;25.90;58.50;;;;;;10482107;28;20229;-78
2023/07/02 11:38:56;;;;;;;12.70;11.40;;;25.70;58.20;;;;;;10476696;28;20229;-79
2023/07/02 11:43:59;;;;;;;13.30;11.10;;;25.50;58.90;;;;;;10477723;28;20222;-79
2023/07/02 11:49:02;;;;;;;13.47;11.13;;;25.50;57.50;;;;;;10477395;28;20202;-80
2023/07/02 11:54:05;;;;;;;16.17;12.43;;;25.50;57.90;;;;;;10476576;28;20308;-80
2023/07/02 11:59:08;;;;;;;13.37;10.80;;;25.50;58.50;;;;;;10469134;28;20245;-79
2023/07/02 12:04:12;;;;;;;10.87;9.73;;;25.50;59.40;;;;;;10490959;28;20218;-79
2023/07/02 12:09:14;;;;;;;20.97;13.27;;;25.50;58.30;;;;;;10468783;28;20571;-77
2023/07/02 12:14:17;;;;;;;13.47;10.57;;;25.40;58.70;;;;;;10486378;28;20213;-79
2023/07/02 12:19:19;;;;;;;14.20;12.43;;;25.20;57.70;;;;;;10486467;28;20226;-79
2023/07/02 12:24:21;;;;;;;13.63;12.10;;;25.10;57.30;;;;;;10490091;28;20226;-80
2023/07/02 12:29:25;;;;;;;13.37;11.97;;;25.10;56.70;;;;;;10486900;28;20228;-78
2023/07/02 12:34:29;;;;;;;15.10;10.73;;;25.10;57.60;;;;;;10509477;28;20252;-78
2023/07/02 12:39:31;;;;;;;13.40;12.00;;;25.00;58.50;;;;;;10505277;28;20222;-78
2023/07/02 12:44:34;;;;;;;13.27;11.93;;;25.00;58.60;;;;;;10501413;28;20217;-78
2023/07/02 12:49:37;;;;;;;18.60;11.93;;;25.00;56.30;;;;;;10475776;28;20201;-78
2023/07/02 12:54:39;;;;;;;15.87;12.30;;;24.90;57.60;;;;;;10462278;28;20216;-79
2023/07/02 12:59:42;;;;;;;14.17;11.50;;;24.90;57.10;;;;;;10477415;28;20308;-79
2023/07/02 13:04:44;;;;;;;15.30;12.67;;;24.80;57.20;;;;;;10493853;28;20374;-79
2023/07/02 13:09:46;;;;;;;14.77;12.57;;;24.80;56.50;;;;;;10486915;28;20194;-79
2023/07/02 13:14:49;;;;;;;18.23;12.03;;;24.80;57.80;;;;;;10492459;28;20243;-79
2023/07/02 13:19:52;;;;;;;14.63;11.90;;;24.80;57.90;;;;;;10502172;28;20617;-78
2023/07/02 13:24:54;;;;;;;12.77;11.47;;;24.80;57.60;;;;;;10495238;28;20289;-79
2023/07/02 13:29:58;;;;;;;14.70;11.77;;;24.80;57.90;;;;;;10494035;28;20194;-78
2023/07/02 13:35:00;;;;;;;14.70;11.93;;;24.80;56.10;;;;;;10500235;28;20279;-79
2023/07/02 13:40:03;;;;;;;17.20;11.63;;;24.80;55.20;;;;;;10481220;28;20233;-79
2023/07/02 13:45:09;;;;;;;14.47;12.23;;;24.80;56.30;;;;;;10484156;28;20220;-79
2023/07/02 13:50:11;;;;;;;15.90;11.20;;;24.80;57.20;;;;;;10457455;28;20217;-79
2023/07/02 13:55:13;;;;;;;16.90;12.73;;;24.80;56.70;;;;;;10475260;28;20221;-79
2023/07/02 14:00:17;;;;;;;13.70;11.40;;;24.80;55.10;;;;;;10475282;28;20280;-78
2023/07/02 14:05:20;;;;;;;13.40;11.23;;;24.80;56.10;;;;;;10458949;28;20237;-77
2023/07/02 14:10:22;;;;;;;13.23;11.20;;;24.80;55.50;;;;;;10484006;28;20185;-78
2023/07/02 14:15:27;;;;;;;12.30;10.57;;;24.90;55.10;;;;;;10471128;28;20673;-78
2023/07/02 14:20:29;;;;;;;12.77;11.33;;;24.80;56.90;;;;;;10477710;28;20754;-77
2023/07/02 14:25:31;;;;;;;14.20;11.90;;;24.80;56.40;;;;;;10480809;28;20704;-78
2023/07/02 14:30:35;;;;;;;13.93;11.70;;;24.80;55.60;;;;;;10465062;28;20240;-78
2023/07/02 14:35:37;;;;;;;12.83;10.23;;;24.70;56.70;;;;;;10482985;28;20194;-78
2023/07/02 14:40:39;;;;;;;12.67;11.10;;;24.70;56.40;;;;;;10479563;28;20279;-78
2023/07/02 14:45:50;;;;;;;18.83;14.23;;;24.70;57.80;;;;;;10489907;28;20198;-79
2023/07/02 14:50:53;;;;;;;13.10;10.50;;;24.80;56.80;;;;;;10487483;28;20213;-78
2023/07/02 14:55:57;;;;;;;15.20;12.20;;;24.90;56.30;;;;;;10487698;28;20213;-79
2023/07/02 15:01:00;;;;;;;13.47;10.83;;;24.90;57.00;;;;;;10491586;28;20240;-79
2023/07/02 15:06:07;;;;;;;17.00;12.23;;;24.90;57.80;;;;;;10459403;28;20202;-79
2023/07/02 15:11:10;;;;;;;14.87;11.87;;;25.00;56.50;;;;;;10473529;28;20739;-78
2023/07/02 15:16:14;;;;;;;15.67;13.00;;;25.00;56.70;;;;;;10477133;28;20214;-78
2023/07/02 15:21:18;;;;;;;14.23;12.17;;;25.10;55.90;;;;;;10477745;28;20221;-76
2023/07/02 15:26:20;;;;;;;12.63;11.17;;;25.10;56.40;;;;;;10485117;28;20208;-78
2023/07/02 15:31:23;;;;;;;13.80;11.70;;;25.10;58.60;;;;;;10471392;28;20247;-78
2023/07/02 15:36:25;;;;;;;15.87;12.07;;;25.10;59.10;;;;;;10478398;28;20241;-78
2023/07/02 15:41:28;;;;;;;17.63;12.20;;;25.00;58.40;;;;;;10459156;28;20213;-77
2023/07/02 15:46:32;;;;;;;16.30;12.60;;;25.00;58.60;;;;;;10460654;28;20292;-76
2023/07/02 15:51:36;;;;;;;17.80;12.57;;;25.00;56.60;;;;;;10459967;28;20224;-78
2023/07/02 15:56:38;;;;;;;15.27;11.43;;;24.90;57.60;;;;;;10456593;28;20226;-78
2023/07/02 16:01:44;;;;;;;15.13;11.00;;;24.80;58.20;;;;;;10470766;28;20257;-78
2023/07/02 16:06:46;;;;;;;13.47;10.17;;;24.80;57.80;;;;;;10460120;28;20572;-78
2023/07/02 16:11:49;;;;;;;14.97;11.93;;;24.80;58.80;;;;;;10478166;28;20229;-78
2023/07/02 16:16:54;;;;;;;14.83;13.23;;;24.80;57.30;;;;;;10470958;28;20257;-78
2023/07/02 16:21:56;;;;;;;14.00;11.77;;;24.80;56.80;;;;;;10471401;28;21399;-78
2023/07/02 16:26:58;;;;;;;14.40;11.80;;;24.80;58.30;;;;;;10469744;28;20205;-78
2023/07/02 16:32:02;;;;;;;16.40;14.20;;;24.80;58.60;;;;;;10472612;28;20222;-77
2023/07/02 16:37:04;;;;;;;14.00;12.20;;;24.80;57.00;;;;;;10470925;28;20320;-78
2023/07/02 16:42:07;;;;;;;16.10;11.93;;;24.70;58.40;;;;;;10467390;28;20212;-76
2023/07/02 16:47:11;;;;;;;12.93;11.00;;;24.70;57.70;;;;;;10459161;28;20205;-78
2023/07/02 16:52:13;;;;;;;12.80;11.47;;;24.70;59.00;;;;;;10473622;28;20220;-76
2023/07/02 16:57:15;;;;;;;12.13;10.83;;;24.60;58.10;;;;;;10470526;28;20228;-78
2023/07/02 17:02:19;;;;;;;17.03;12.87;;;24.50;59.90;;;;;;10493971;22;20233;-81
2023/07/02 17:07:21;;;;;;;12.07;10.97;;;24.50;58.70;;;;;;10521567;28;20669;-83
2023/07/02 17:12:23;;;;;;;14.63;12.50;;;24.50;58.80;;;;;;10502223;28;20228;-85
2023/07/02 17:17:28;;;;;;;11.07;8.77;;;24.50;58.30;;;;;;10519207;28;20259;-84
2023/07/02 17:22:32;;;;;;;18.00;16.00;;;24.50;58.60;;;;;;10520936;28;20256;-83
2023/07/02 17:27:34;;;;;;;16.87;13.03;;;24.50;57.80;;;;;;10520932;28;20265;-84
2023/07/02 17:32:39;;;;;;;16.17;12.43;;;24.50;59.00;;;;;;10499837;28;20266;-83
2023/07/02 17:37:42;;;;;;;10.97;9.87;;;24.60;57.80;;;;;;10500030;28;20893;-85
2023/07/02 17:42:44;;;;;;;13.03;11.47;;;24.50;58.90;;;;;;10506012;28;20849;-84
2023/07/02 17:47:48;;;;;;;13.00;11.30;;;24.40;61.10;;;;;;10515809;28;20193;-83
2023/07/02 17:52:50;;;;;;;15.73;11.97;;;24.30;59.90;;;;;;10500994;28;20247;-83
2023/07/02 17:57:52;;;;;;;15.57;11.50;;;24.20;60.30;;;;;;10518821;28;20220;-82
2023/07/02 18:02:56;;;;;;;13.93;11.27;;;24.20;60.80;;;;;;10474026;28;20240;-82
2023/07/02 18:07:58;;;;;;;13.93;11.30;;;24.20;60.80;;;;;;10477839;28;20201;-83
2023/07/02 18:13:00;;;;;;;17.50;12.33;;;24.20;59.60;;;;;;10486263;28;20311;-84
2023/07/02 18:18:04;;;;;;;16.50;12.93;;;24.20;58.90;;;;;;10484449;28;20221;-83
2023/07/02 18:23:06;;;;;;;16.73;11.70;;;24.10;59.10;;;;;;10493200;28;20225;-83
2023/07/02 18:28:11;;;;;;;17.63;12.53;;;24.00;58.30;;;;;;10488039;28;20210;-84
2023/07/02 18:33:15;;;;;;;18.00;13.60;;;24.00;61.10;;;;;;10494178;28;20217;-83
2023/07/02 18:38:18;;;;;;;19.70;12.77;;;23.90;60.00;;;;;;10456098;28;20303;-82
2023/07/02 18:43:20;;;;;;;20.30;12.90;;;23.90;58.60;;;;;;10468367;28;20219;-82
2023/07/02 18:48:24;;;;;;;17.20;12.47;;;23.80;59.40;;;;;;10492677;28;20208;-83
2023/07/02 18:53:27;;;;;;;20.43;12.57;;;23.80;58.90;;;;;;10499901;28;20578;-82
2023/07/02 18:58:31;;;;;;;16.83;12.80;;;23.70;60.60;;;;;;10479845;28;20222;-82
2023/07/02 19:03:35;;;;;;;17.03;12.33;;;23.60;59.10;;;;;;10514824;28;20219;-81
2023/07/02 19:08:38;;;;;;;19.17;12.27;;;23.50;59.30;;;;;;10542829;28;20192;-83
2023/07/02 19:13:40;;;;;;;15.30;12.03;;;23.40;60.50;;;;;;10555510;28;20307;-81
2023/07/02 19:18:43;;;;;;;14.77;11.70;;;23.40;61.60;;;;;;10559829;28;20216;-81
2023/07/02 19:23:45;;;;;;;16.07;12.10;;;23.30;62.80;;;;;;10563366;28;20212;-82
2023/07/02 19:28:48;;;;;;;15.40;11.70;;;23.20;67.70;;;;;;10561226;28;20201;-83
2023/07/02 19:33:51;;;;;;;17.67;12.30;;;23.20;64.60;;;;;;10563538;28;20224;-81
2023/07/02 19:38:53;;;;;;;18.37;12.50;;;23.10;62.30;;;;;;10540681;28;20256;-82
2023/07/02 19:43:56;;;;;;;18.10;13.00;;;23.00;63.60;;;;;;10570840;28;20220;-81
2023/07/02 19:48:59;;;;;;;17.57;12.80;;;23.00;67.00;;;;;;10539850;28;20200;-80
2023/07/02 19:54:03;;;;;;;16.30;12.57;;;22.90;65.00;;;;;;10557075;28;20251;-81
2023/07/02 19:59:05;;;;;;;17.33;13.33;;;22.80;65.00;;;;;;10561378;28;20660;-80
2023/07/02 20:04:20;;;;;;;16.63;11.90;;;22.80;68.20;;;;;;10557646;28;20235;-82
2023/07/02 20:09:23;;;;;;;19.47;13.40;;;22.70;67.20;;;;;;10542713;28;20252;-81
2023/07/02 20:14:26;;;;;;;14.57;11.67;;;22.60;67.90;;;;;;10553516;28;20217;-81
2023/07/02 20:19:29;;;;;;;17.60;13.20;;;22.60;68.60;;;;;;10555653;28;20219;-81
2023/07/02 20:24:31;;;;;;;16.33;12.27;;;22.60;68.40;;;;;;10557209;28;20227;-83
2023/07/02 20:29:33;;;;;;;17.40;13.40;;;22.50;68.40;;;;;;10524932;28;20200;-81
2023/07/02 20:34:37;;;;;;;16.17;12.50;;;22.40;69.80;;;;;;10546220;28;20371;-82
2023/07/02 20:39:40;;;;;;;20.13;12.93;;;22.40;68.20;;;;;;10558919;28;20213;-81
2023/07/02 20:44:46;;;;;;;19.93;13.40;;;22.40;64.80;;;;;;10561584;28;20223;-79
2023/07/02 20:49:51;;;;;;;18.47;13.40;;;22.30;65.50;;;;;;10563271;28;20196;-82
2023/07/02 20:54:54;;;;;;;15.00;12.40;;;22.30;67.30;;;;;;10562046;28;20212;-81
2023/07/02 20:59:57;;;;;;;21.47;13.07;;;22.30;68.10;;;;;;10558029;28;20303;-82
2023/07/02 21:05:00;;;;;;;18.20;12.47;;;22.20;69.30;;;;;;10559411;28;20667;-81
2023/07/02 21:10:04;;;;;;;16.70;13.10;;;22.20;65.80;;;;;;10549684;28;20207;-79
2023/07/02 21:15:07;;;;;;;18.77;12.97;;;22.20;66.50;;;;;;10533313;28;20220;-82
2023/07/02 21:20:13;;;;;;;17.07;11.80;;;22.10;69.20;;;;;;10554418;28;20224;-80
2023/07/02 21:25:15;;;;;;;18.13;12.70;;;22.10;67.50;;;;;;10557150;28;20263;-81
2023/07/02 21:30:18;;;;;;;13.27;11.20;;;22.10;67.10;;;;;;10560655;28;20207;-81
2023/07/02 21:35:21;;;;;;;15.50;12.17;;;22.00;69.80;;;;;;10563313;28;20209;-80
2023/07/02 21:40:23;;;;;;;17.90;11.70;;;22.00;68.80;;;;;;10534651;28;20702;-80
2023/07/02 21:45:25;;;;;;;15.50;11.73;;;22.00;68.80;;;;;;10588883;28;20279;-81
2023/07/02 21:50:29;;;;;;;14.00;11.07;;;21.90;69.20;;;;;;10565209;28;20213;-79
2023/07/02 21:55:32;;;;;;;14.70;11.90;;;21.90;70.30;;;;;;10561492;28;20228;-81
2023/07/02 22:00:34;;;;;;;15.03;12.97;;;21.80;68.90;;;;;;10542011;28;20286;-83
2023/07/02 22:05:38;;;;;;;15.90;12.47;;;21.80;68.30;;;;;;10567732;28;20219;-80
2023/07/02 22:10:40;;;;;;;18.50;12.03;;;21.70;69.10;;;;;;10561055;28;20196;-83
2023/07/02 22:15:43;;;;;;;15.43;12.10;;;21.60;68.30;;;;;;10545711;28;20243;-83
2023/07/02 22:20:47;;;;;;;18.60;12.83;;;21.60;69.80;;;;;;10564121;28;20281;-83
2023/07/02 22:25:49;;;;;;;17.23;12.90;;;21.50;69.90;;;;;;10548456;28;20208;-82
2023/07/02 22:30:51;;;;;;;16.27;12.00;;;21.40;69.90;;;;;;10574852;28;20200;-82
2023/07/02 22:35:54;;;;;;;16.10;12.60;;;21.30;70.40;;;;;;10565906;28;20231;-83
2023/07/02 22:40:56;;;;;;;18.37;12.23;;;21.10;70.60;;;;;;10569836;28;20256;-80
2023/07/02 22:45:58;;;;;;;20.00;13.47;;;21.00;70.60;;;;;;10565873;28;20275;-82
2023/07/02 22:51:02;;;;;;;14.97;11.90;;;20.90;71.30;;;;;;10569045;28;20197;-82
2023/07/02 22:56:15;;;;;;;17.80;12.43;;;20.80;71.50;;;;;;10562237;28;20200;-82
2023/07/02 23:01:18;;;;;;;16.93;12.70;;;20.70;71.80;;;;;;10571297;28;20224;-83
2023/07/02 23:06:22;;;;;;;22.13;13.10;;;20.70;71.70;;;;;;10553477;22;20224;-77
2023/07/02 23:11:24;;;;;;;17.07;12.37;;;20.60;71.20;;;;;;10524332;28;20243;-77
2023/07/02 23:16:26;;;;;;;17.07;12.27;;;20.50;72.70;;;;;;10514614;28;20378;-79
2023/07/02 23:21:30;;;;;;;13.80;10.83;;;20.40;72.00;;;;;;10515023;28;20221;-78
2023/07/02 23:26:33;;;;;;;18.33;12.20;;;20.40;72.60;;;;;;10539249;28;20224;-77
2023/07/02 23:31:37;;;;;;;16.20;11.00;;;20.30;71.80;;;;;;10518817;28;20238;-78
2023/07/02 23:36:44;;;;;;;15.73;10.67;;;20.20;72.80;;;;;;10524367;28;20220;-78
2023/07/02 23:41:46;;;;;;;14.17;12.20;;;20.20;72.80;;;;;;10522377;28;20638;-77
2023/07/02 23:46:48;;;;;;;14.80;11.97;;;20.20;71.90;;;;;;10523156;28;20216;-77
2023/07/02 23:51:51;;;;;;;13.73;11.00;;;20.10;71.50;;;;;;10524639;28;20608;-77
2023/07/02 23:56:53;;;;;;;15.80;11.10;;;20.00;71.30;;;;;;10524514;28;20212;-78
